Погода Селайана неделю

Гуанахуато, Мексика

01 - 07 марта
  • 01марта
    Сегодня
    +11°
    +32°
    Небольшая облачность
    ВремяПогодаТемператураВлажностьДавлениеВетер, м/сВероятность осадков
    00:00Облачно с прояснениями+20°C45 %624 мм1.5 м/с2 %
    03:00Облачно с прояснениями+16°C57 %623 мм1.3 м/с2 %
    06:00Облачно с прояснениями+14°C62 %622 мм0.6 м/с2 %
    09:00Небольшая облачность+17°C44 %625 мм0.6 м/с2 %
    12:00Практически безоблачно+26°C20 %627 мм2.4 м/с2 %
    15:00Небольшая облачность+30°C13 %625 мм3.5 м/с2 %
    18:00Облачно с прояснениями+29°C12 %624 мм4.0 м/с2 %
    21:00Облачно с прояснениями+23°C28 %624 мм4.3 м/с2 %
  • 02марта
    Суббота
    +12°
    +31°
    Ясно и безоблачно
    ВремяПогодаТемператураВлажностьДавлениеВетер, м/сВероятность осадков
    00:00Облачно с прояснениями+19°C38 %624 мм1.5 м/с1 %
    03:00Ясно и безоблачно+17°C49 %623 мм1.5 м/с1 %
    06:00Ясно и безоблачно+13°C56 %622 мм1.3 м/с2 %
    09:00Ясно и безоблачно+17°C41 %625 мм0.7 м/с2 %
    12:00Ясно и безоблачно+25°C24 %626 мм2.1 м/с2 %
    15:00Ясно и безоблачно+30°C17 %625 мм2.8 м/с2 %
    18:00Облачно с прояснениями+29°C13 %624 мм3.8 м/с2 %
    21:00Ясно и безоблачно+22°C27 %624 мм4.7 м/с2 %
  • 03марта
    Воскресенье
    +11°
    +31°
    Ясно и безоблачно
    ВремяПогодаТемператураВлажностьДавлениеВетер, м/сВероятность осадков
    00:00Облачно с прояснениями+19°C38 %624 мм1.6 м/с2 %
    03:00Ясно и безоблачно+15°C50 %622 мм1.9 м/с2 %
    06:00Ясно и безоблачно+14°C54 %622 мм1.9 м/с2 %
    09:00Ясно и безоблачно+17°C42 %624 мм1.3 м/с2 %
    12:00Ясно и безоблачно+25°C21 %625 мм2.6 м/с2 %
    15:00Ясно и безоблачно+30°C13 %624 мм3.3 м/с2 %
    18:00Ясно и безоблачно+30°C9 %623 мм4.3 м/с2 %
    21:00Ясно и безоблачно+22°C31 %623 мм4.2 м/с2 %
  • 04марта
    Понедельник
    +13°
    +31°
    Ясно и безоблачно
    ВремяПогодаТемператураВлажностьДавлениеВетер, м/сВероятность осадков
    00:00Ясно и безоблачно+19°C36 %623 мм1.4 м/с2 %
    03:00Ясно и безоблачно+16°C45 %621 мм2.1 м/с2 %
    06:00Ясно и безоблачно+13°C53 %621 мм1.3 м/с2 %
    09:00Ясно и безоблачно+17°C34 %624 мм0.9 м/с2 %
    12:00Практически безоблачно+25°C21 %625 мм2.3 м/с2 %
    15:00Ясно и безоблачно+30°C13 %623 мм3.5 м/с2 %
    18:00Ясно и безоблачно+29°C15 %622 мм3.6 м/с2 %
    21:00Ясно и безоблачно+22°C20 %623 мм4.4 м/с2 %
  • 05марта
    Вторник
    +13°
    +31°
    Облачно с прояснениями
    ВремяПогодаТемператураВлажностьДавлениеВетер, м/сВероятность осадков
    00:00Ясно и безоблачно+18°C29 %622 мм1.2 м/с2 %
    03:00Облачно с прояснениями+15°C38 %620 мм1.6 м/с2 %
    06:00Ясно и безоблачно+14°C45 %620 мм1.5 м/с2 %
    09:00Ясно и безоблачно+17°C33 %623 мм0.8 м/с2 %
    12:00Ясно и безоблачно+25°C17 %624 мм2.2 м/с2 %
    15:00Облачно с прояснениями+31°C9 %622 мм3.2 м/с2 %
    18:00Практически безоблачно+30°C7 %622 мм4.2 м/с2 %
    21:00Облачно с прояснениями+22°C18 %621 мм3.7 м/с2 %
Мы используем cookies
Соглашаюсь